sensor_id;sensor_type;location;lat;lon;timestamp;P1;durP1;ratioP1;P2;durP2;ratioP2
18917;SDS011;9591;52.742;13.650;2023-02-11T00:02:14;41.20;;;16.23;;
18917;SDS011;9591;52.742;13.650;2023-02-11T00:05:01;39.80;;;14.83;;
18917;SDS011;9591;52.742;13.650;2023-02-11T00:07:49;46.90;;;16.97;;
18917;SDS011;9591;52.742;13.650;2023-02-11T00:10:36;22.60;;;9.90;;
18917;SDS011;9591;52.742;13.650;2023-02-11T00:13:23;51.60;;;17.37;;
18917;SDS011;9591;52.742;13.650;2023-02-11T00:16:11;50.57;;;19.27;;
18917;SDS011;9591;52.742;13.650;2023-02-11T00:18:59;38.50;;;14.83;;
18917;SDS011;9591;52.742;13.650;2023-02-11T00:21:47;44.77;;;18.07;;
18917;SDS011;9591;52.742;13.650;2023-02-11T00:24:35;49.10;;;18.80;;
18917;SDS011;9591;52.742;13.650;2023-02-11T00:27:22;43.77;;;17.67;;
18917;SDS011;9591;52.742;13.650;2023-02-11T00:30:09;50.43;;;18.07;;
18917;SDS011;9591;52.742;13.650;2023-02-11T00:32:57;53.53;;;18.33;;
18917;SDS011;9591;52.742;13.650;2023-02-11T00:35:49;47.83;;;19.10;;
18917;SDS011;9591;52.742;13.650;2023-02-11T00:38:37;48.27;;;18.00;;
18917;SDS011;9591;52.742;13.650;2023-02-11T00:41:31;47.70;;;18.00;;
18917;SDS011;9591;52.742;13.650;2023-02-11T00:44:18;48.77;;;17.50;;
18917;SDS011;9591;52.742;13.650;2023-02-11T00:47:05;48.60;;;17.63;;
18917;SDS011;9591;52.742;13.650;2023-02-11T00:49:53;39.57;;;14.50;;
18917;SDS011;9591;52.742;13.650;2023-02-11T00:52:44;49.57;;;16.53;;
18917;SDS011;9591;52.742;13.650;2023-02-11T00:55:30;52.13;;;18.37;;
18917;SDS011;9591;52.742;13.650;2023-02-11T00:58:19;54.87;;;19.67;;
18917;SDS011;9591;52.742;13.650;2023-02-11T01:01:06;46.50;;;17.20;;
18917;SDS011;9591;52.742;13.650;2023-02-11T01:03:52;45.57;;;16.87;;
18917;SDS011;9591;52.742;13.650;2023-02-11T01:06:40;36.90;;;13.07;;
18917;SDS011;9591;52.742;13.650;2023-02-11T01:09:27;41.77;;;16.10;;
18917;SDS011;9591;52.742;13.650;2023-02-11T01:12:14;56.90;;;17.63;;
18917;SDS011;9591;52.742;13.650;2023-02-11T01:15:02;47.70;;;17.20;;
18917;SDS011;9591;52.742;13.650;2023-02-11T01:17:50;44.43;;;15.33;;
18917;SDS011;9591;52.742;13.650;2023-02-11T01:20:37;53.37;;;18.70;;
18917;SDS011;9591;52.742;13.650;2023-02-11T01:23:24;55.17;;;19.40;;
18917;SDS011;9591;52.742;13.650;2023-02-11T01:26:11;44.83;;;17.13;;
18917;SDS011;9591;52.742;13.650;2023-02-11T01:28:59;55.67;;;18.30;;
18917;SDS011;9591;52.742;13.650;2023-02-11T01:31:48;48.67;;;18.63;;
18917;SDS011;9591;52.742;13.650;2023-02-11T01:34:36;51.23;;;18.87;;
18917;SDS011;9591;52.742;13.650;2023-02-11T01:37:24;51.27;;;18.27;;
18917;SDS011;9591;52.742;13.650;2023-02-11T01:40:12;47.30;;;19.30;;
18917;SDS011;9591;52.742;13.650;2023-02-11T01:43:02;55.80;;;19.50;;
18917;SDS011;9591;52.742;13.650;2023-02-11T01:45:57;50.63;;;19.53;;
18917;SDS011;9591;52.742;13.650;2023-02-11T01:48:49;53.67;;;20.40;;
18917;SDS011;9591;52.742;13.650;2023-02-11T01:51:40;59.13;;;19.67;;
18917;SDS011;9591;52.742;13.650;2023-02-11T01:54:34;52.07;;;18.50;;
18917;SDS011;9591;52.742;13.650;2023-02-11T01:57:58;57.90;;;20.10;;
18917;SDS011;9591;52.742;13.650;2023-02-11T02:00:51;53.00;;;20.00;;
18917;SDS011;9591;52.742;13.650;2023-02-11T02:03:39;57.83;;;20.27;;
18917;SDS011;9591;52.742;13.650;2023-02-11T02:06:34;48.90;;;19.17;;
18917;SDS011;9591;52.742;13.650;2023-02-11T02:09:32;54.43;;;19.30;;
18917;SDS011;9591;52.742;13.650;2023-02-11T02:12:24;55.70;;;19.23;;
18917;SDS011;9591;52.742;13.650;2023-02-11T02:15:23;46.57;;;17.77;;
18917;SDS011;9591;52.742;13.650;2023-02-11T02:18:19;45.53;;;19.20;;
18917;SDS011;9591;52.742;13.650;2023-02-11T02:24:53;17.87;;;9.07;;
18917;SDS011;9591;52.742;13.650;2023-02-11T02:27:47;38.67;;;16.43;;
18917;SDS011;9591;52.742;13.650;2023-02-11T02:30:47;54.30;;;18.30;;
18917;SDS011;9591;52.742;13.650;2023-02-11T02:33:52;51.37;;;17.90;;
18917;SDS011;9591;52.742;13.650;2023-02-11T02:36:46;51.03;;;18.50;;
18917;SDS011;9591;52.742;13.650;2023-02-11T02:39:40;55.40;;;21.73;;
18917;SDS011;9591;52.742;13.650;2023-02-11T02:42:29;48.90;;;19.77;;
18917;SDS011;9591;52.742;13.650;2023-02-11T02:45:17;55.27;;;20.23;;
18917;SDS011;9591;52.742;13.650;2023-02-11T02:48:05;51.50;;;19.03;;
18917;SDS011;9591;52.742;13.650;2023-02-11T02:50:57;55.07;;;18.23;;
18917;SDS011;9591;52.742;13.650;2023-02-11T02:53:56;48.10;;;19.83;;
18917;SDS011;9591;52.742;13.650;2023-02-11T02:56:53;51.67;;;17.97;;
18917;SDS011;9591;52.742;13.650;2023-02-11T02:59:46;53.37;;;18.53;;
18917;SDS011;9591;52.742;13.650;2023-02-11T03:02:46;39.00;;;15.70;;
18917;SDS011;9591;52.742;13.650;2023-02-11T03:05:47;48.67;;;19.80;;
18917;SDS011;9591;52.742;13.650;2023-02-11T03:08:41;49.83;;;19.63;;
18917;SDS011;9591;52.742;13.650;2023-02-11T03:11:31;60.77;;;20.00;;
18917;SDS011;9591;52.742;13.650;2023-02-11T03:14:19;60.37;;;19.17;;
18917;SDS011;9591;52.742;13.650;2023-02-11T03:17:08;50.70;;;20.87;;
18917;SDS011;9591;52.742;13.650;2023-02-11T03:19:55;49.30;;;20.50;;
18917;SDS011;9591;52.742;13.650;2023-02-11T03:22:45;49.10;;;18.87;;
18917;SDS011;9591;52.742;13.650;2023-02-11T03:25:39;46.73;;;19.50;;
18917;SDS011;9591;52.742;13.650;2023-02-11T03:28:32;51.33;;;19.03;;
18917;SDS011;9591;52.742;13.650;2023-02-11T03:31:26;43.97;;;17.50;;
18917;SDS011;9591;52.742;13.650;2023-02-11T03:34:21;44.43;;;18.27;;
18917;SDS011;9591;52.742;13.650;2023-02-11T03:37:13;51.80;;;18.40;;
18917;SDS011;9591;52.742;13.650;2023-02-11T03:40:05;50.67;;;18.83;;
18917;SDS011;9591;52.742;13.650;2023-02-11T03:42:57;54.23;;;20.67;;
18917;SDS011;9591;52.742;13.650;2023-02-11T03:45:48;53.43;;;19.37;;
18917;SDS011;9591;52.742;13.650;2023-02-11T03:48:38;52.73;;;19.70;;
18917;SDS011;9591;52.742;13.650;2023-02-11T03:51:30;52.57;;;19.47;;
18917;SDS011;9591;52.742;13.650;2023-02-11T03:54:19;50.03;;;19.67;;
18917;SDS011;9591;52.742;13.650;2023-02-11T03:57:09;47.63;;;19.87;;
18917;SDS011;9591;52.742;13.650;2023-02-11T03:59:57;51.20;;;18.80;;
18917;SDS011;9591;52.742;13.650;2023-02-11T04:02:44;50.60;;;18.83;;
18917;SDS011;9591;52.742;13.650;2023-02-11T04:05:31;53.83;;;20.57;;
18917;SDS011;9591;52.742;13.650;2023-02-11T04:08:18;45.33;;;18.50;;
18917;SDS011;9591;52.742;13.650;2023-02-11T04:11:04;56.03;;;21.37;;
18917;SDS011;9591;52.742;13.650;2023-02-11T04:13:51;51.10;;;18.37;;
18917;SDS011;9591;52.742;13.650;2023-02-11T04:16:39;53.33;;;20.07;;
18917;SDS011;9591;52.742;13.650;2023-02-11T04:19:26;52.27;;;18.90;;
18917;SDS011;9591;52.742;13.650;2023-02-11T04:22:13;51.17;;;19.40;;
18917;SDS011;9591;52.742;13.650;2023-02-11T04:25:00;57.73;;;19.83;;
18917;SDS011;9591;52.742;13.650;2023-02-11T04:27:47;49.40;;;19.13;;
18917;SDS011;9591;52.742;13.650;2023-02-11T04:30:33;54.77;;;20.77;;
18917;SDS011;9591;52.742;13.650;2023-02-11T04:33:22;43.83;;;15.30;;
18917;SDS011;9591;52.742;13.650;2023-02-11T04:36:09;50.30;;;18.50;;
18917;SDS011;9591;52.742;13.650;2023-02-11T04:38:56;54.03;;;19.97;;
18917;SDS011;9591;52.742;13.650;2023-02-11T04:41:43;50.43;;;19.47;;
18917;SDS011;9591;52.742;13.650;2023-02-11T04:44:32;57.30;;;20.50;;
18917;SDS011;9591;52.742;13.650;2023-02-11T04:47:19;51.83;;;19.70;;
18917;SDS011;9591;52.742;13.650;2023-02-11T04:50:07;54.53;;;19.77;;
18917;SDS011;9591;52.742;13.650;2023-02-11T04:52:54;54.33;;;19.87;;
18917;SDS011;9591;52.742;13.650;2023-02-11T04:55:41;57.67;;;21.40;;
18917;SDS011;9591;52.742;13.650;2023-02-11T04:58:28;50.47;;;20.10;;
18917;SDS011;9591;52.742;13.650;2023-02-11T05:01:15;35.90;;;13.57;;
18917;SDS011;9591;52.742;13.650;2023-02-11T05:04:02;60.13;;;21.27;;
18917;SDS011;9591;52.742;13.650;2023-02-11T05:06:50;45.17;;;16.17;;
18917;SDS011;9591;52.742;13.650;2023-02-11T05:09:37;59.53;;;22.03;;
18917;SDS011;9591;52.742;13.650;2023-02-11T05:12:24;55.87;;;21.03;;
18917;SDS011;9591;52.742;13.650;2023-02-11T05:15:10;57.50;;;21.60;;
18917;SDS011;9591;52.742;13.650;2023-02-11T05:18:01;56.33;;;21.67;;
18917;SDS011;9591;52.742;13.650;2023-02-11T05:20:50;53.20;;;19.63;;
18917;SDS011;9591;52.742;13.650;2023-02-11T05:23:39;51.63;;;19.63;;
18917;SDS011;9591;52.742;13.650;2023-02-11T05:26:26;67.77;;;21.63;;
18917;SDS011;9591;52.742;13.650;2023-02-11T05:29:13;52.37;;;20.20;;
18917;SDS011;9591;52.742;13.650;2023-02-11T05:31:59;33.73;;;13.60;;
18917;SDS011;9591;52.742;13.650;2023-02-11T05:34:46;59.33;;;21.87;;
18917;SDS011;9591;52.742;13.650;2023-02-11T05:37:33;54.37;;;20.83;;
18917;SDS011;9591;52.742;13.650;2023-02-11T05:40:21;46.33;;;17.70;;
18917;SDS011;9591;52.742;13.650;2023-02-11T05:43:08;57.17;;;21.27;;
18917;SDS011;9591;52.742;13.650;2023-02-11T05:45:55;57.17;;;21.93;;
18917;SDS011;9591;52.742;13.650;2023-02-11T05:48:42;60.13;;;21.60;;
18917;SDS011;9591;52.742;13.650;2023-02-11T05:51:29;56.57;;;22.17;;
18917;SDS011;9591;52.742;13.650;2023-02-11T05:54:16;56.73;;;21.93;;
18917;SDS011;9591;52.742;13.650;2023-02-11T05:57:04;23.03;;;9.83;;
18917;SDS011;9591;52.742;13.650;2023-02-11T05:59:51;57.40;;;21.47;;
18917;SDS011;9591;52.742;13.650;2023-02-11T06:02:38;67.17;;;22.03;;
18917;SDS011;9591;52.742;13.650;2023-02-11T06:05:25;64.03;;;21.90;;
18917;SDS011;9591;52.742;13.650;2023-02-11T06:08:12;64.23;;;22.17;;
18917;SDS011;9591;52.742;13.650;2023-02-11T06:10:58;59.47;;;22.27;;
18917;SDS011;9591;52.742;13.650;2023-02-11T06:13:46;62.63;;;21.67;;
18917;SDS011;9591;52.742;13.650;2023-02-11T06:16:33;61.13;;;21.97;;
18917;SDS011;9591;52.742;13.650;2023-02-11T06:19:20;57.10;;;21.60;;
18917;SDS011;9591;52.742;13.650;2023-02-11T06:22:07;68.97;;;23.37;;
18917;SDS011;9591;52.742;13.650;2023-02-11T06:24:54;61.73;;;21.33;;
18917;SDS011;9591;52.742;13.650;2023-02-11T06:27:45;61.70;;;22.10;;
18917;SDS011;9591;52.742;13.650;2023-02-11T06:30:34;60.63;;;24.30;;
18917;SDS011;9591;52.742;13.650;2023-02-11T06:33:21;59.63;;;22.60;;
18917;SDS011;9591;52.742;13.650;2023-02-11T06:36:10;60.53;;;22.60;;
18917;SDS011;9591;52.742;13.650;2023-02-11T06:38:59;70.67;;;24.77;;
18917;SDS011;9591;52.742;13.650;2023-02-11T06:41:46;62.20;;;23.93;;
18917;SDS011;9591;52.742;13.650;2023-02-11T06:44:32;67.03;;;24.20;;
18917;SDS011;9591;52.742;13.650;2023-02-11T06:47:21;69.53;;;23.37;;
18917;SDS011;9591;52.742;13.650;2023-02-11T06:50:08;58.57;;;22.23;;
18917;SDS011;9591;52.742;13.650;2023-02-11T06:52:57;67.27;;;23.70;;
18917;SDS011;9591;52.742;13.650;2023-02-11T06:55:43;64.93;;;22.43;;
18917;SDS011;9591;52.742;13.650;2023-02-11T06:58:30;65.10;;;23.30;;
18917;SDS011;9591;52.742;13.650;2023-02-11T07:01:17;59.13;;;24.37;;
18917;SDS011;9591;52.742;13.650;2023-02-11T07:04:06;57.93;;;22.03;;
18917;SDS011;9591;52.742;13.650;2023-02-11T07:06:53;65.50;;;24.13;;
18917;SDS011;9591;52.742;13.650;2023-02-11T07:09:40;68.10;;;24.93;;
18917;SDS011;9591;52.742;13.650;2023-02-11T07:12:26;66.77;;;24.67;;
18917;SDS011;9591;52.742;13.650;2023-02-11T07:15:13;66.03;;;24.57;;
18917;SDS011;9591;52.742;13.650;2023-02-11T07:18:00;32.80;;;14.10;;
18917;SDS011;9591;52.742;13.650;2023-02-11T07:20:48;65.60;;;23.93;;
18917;SDS011;9591;52.742;13.650;2023-02-11T07:23:35;64.27;;;24.07;;
18917;SDS011;9591;52.742;13.650;2023-02-11T07:26:23;74.67;;;25.20;;
18917;SDS011;9591;52.742;13.650;2023-02-11T07:29:11;66.97;;;23.53;;
18917;SDS011;9591;52.742;13.650;2023-02-11T07:31:58;72.77;;;24.67;;
18917;SDS011;9591;52.742;13.650;2023-02-11T07:34:45;69.43;;;25.17;;
18917;SDS011;9591;52.742;13.650;2023-02-11T07:37:34;61.67;;;24.00;;
18917;SDS011;9591;52.742;13.650;2023-02-11T07:40:21;66.97;;;25.00;;
18917;SDS011;9591;52.742;13.650;2023-02-11T07:43:08;76.23;;;24.80;;
18917;SDS011;9591;52.742;13.650;2023-02-11T07:45:55;65.77;;;24.70;;
18917;SDS011;9591;52.742;13.650;2023-02-11T07:48:41;72.03;;;24.07;;
18917;SDS011;9591;52.742;13.650;2023-02-11T07:51:29;62.97;;;24.00;;
18917;SDS011;9591;52.742;13.650;2023-02-11T07:54:18;71.90;;;24.60;;
18917;SDS011;9591;52.742;13.650;2023-02-11T07:57:04;69.63;;;22.27;;
18917;SDS011;9591;52.742;13.650;2023-02-11T07:59:51;66.33;;;21.97;;
18917;SDS011;9591;52.742;13.650;2023-02-11T08:02:38;67.00;;;24.47;;
18917;SDS011;9591;52.742;13.650;2023-02-11T08:05:25;54.43;;;19.90;;
18917;SDS011;9591;52.742;13.650;2023-02-11T08:08:12;64.73;;;22.77;;
18917;SDS011;9591;52.742;13.650;2023-02-11T08:11:05;80.63;;;24.83;;
18917;SDS011;9591;52.742;13.650;2023-02-11T08:13:53;66.57;;;23.67;;
18917;SDS011;9591;52.742;13.650;2023-02-11T08:16:40;67.33;;;24.70;;
18917;SDS011;9591;52.742;13.650;2023-02-11T08:19:27;72.67;;;24.43;;
18917;SDS011;9591;52.742;13.650;2023-02-11T08:22:14;44.53;;;16.77;;
18917;SDS011;9591;52.742;13.650;2023-02-11T08:25:01;70.83;;;23.53;;
18917;SDS011;9591;52.742;13.650;2023-02-11T08:27:49;72.10;;;23.07;;
18917;SDS011;9591;52.742;13.650;2023-02-11T08:30:36;68.10;;;22.93;;
18917;SDS011;9591;52.742;13.650;2023-02-11T08:33:23;64.10;;;23.33;;
18917;SDS011;9591;52.742;13.650;2023-02-11T08:36:11;65.63;;;23.20;;
18917;SDS011;9591;52.742;13.650;2023-02-11T08:39:00;59.63;;;23.03;;
18917;SDS011;9591;52.742;13.650;2023-02-11T08:42:03;60.37;;;21.37;;
18917;SDS011;9591;52.742;13.650;2023-02-11T08:44:51;33.53;;;13.47;;
18917;SDS011;9591;52.742;13.650;2023-02-11T08:47:38;60.70;;;22.87;;
18917;SDS011;9591;52.742;13.650;2023-02-11T08:50:25;63.80;;;20.63;;
18917;SDS011;9591;52.742;13.650;2023-02-11T08:53:12;66.90;;;22.43;;
18917;SDS011;9591;52.742;13.650;2023-02-11T08:55:59;83.27;;;24.13;;
18917;SDS011;9591;52.742;13.650;2023-02-11T08:58:46;61.80;;;21.80;;
18917;SDS011;9591;52.742;13.650;2023-02-11T09:01:34;64.37;;;20.80;;
18917;SDS011;9591;52.742;13.650;2023-02-11T09:04:22;63.00;;;21.53;;
18917;SDS011;9591;52.742;13.650;2023-02-11T09:07:15;61.90;;;20.57;;
18917;SDS011;9591;52.742;13.650;2023-02-11T09:10:14;58.93;;;21.03;;
18917;SDS011;9591;52.742;13.650;2023-02-11T09:13:12;61.03;;;23.10;;
18917;SDS011;9591;52.742;13.650;2023-02-11T09:16:02;62.97;;;21.67;;
18917;SDS011;9591;52.742;13.650;2023-02-11T09:18:51;73.97;;;22.73;;
18917;SDS011;9591;52.742;13.650;2023-02-11T09:21:38;68.40;;;23.03;;
18917;SDS011;9591;52.742;13.650;2023-02-11T09:24:25;64.00;;;21.70;;
18917;SDS011;9591;52.742;13.650;2023-02-11T09:27:12;51.93;;;20.43;;
18917;SDS011;9591;52.742;13.650;2023-02-11T09:29:59;59.57;;;21.23;;
18917;SDS011;9591;52.742;13.650;2023-02-11T09:32:46;59.10;;;20.13;;
18917;SDS011;9591;52.742;13.650;2023-02-11T09:35:34;59.67;;;21.23;;
18917;SDS011;9591;52.742;13.650;2023-02-11T09:38:21;61.53;;;20.77;;
18917;SDS011;9591;52.742;13.650;2023-02-11T09:41:12;54.20;;;18.87;;
18917;SDS011;9591;52.742;13.650;2023-02-11T09:44:16;58.60;;;20.30;;
18917;SDS011;9591;52.742;13.650;2023-02-11T09:47:09;56.73;;;22.53;;
18917;SDS011;9591;52.742;13.650;2023-02-11T09:50:09;53.33;;;21.30;;
18917;SDS011;9591;52.742;13.650;2023-02-11T09:53:00;61.27;;;20.43;;
18917;SDS011;9591;52.742;13.650;2023-02-11T09:55:50;54.13;;;19.97;;
18917;SDS011;9591;52.742;13.650;2023-02-11T09:58:41;53.73;;;20.07;;
18917;SDS011;9591;52.742;13.650;2023-02-11T10:01:29;50.00;;;19.60;;
18917;SDS011;9591;52.742;13.650;2023-02-11T10:04:32;62.70;;;21.30;;
18917;SDS011;9591;52.742;13.650;2023-02-11T10:07:30;51.93;;;17.73;;
18917;SDS011;9591;52.742;13.650;2023-02-11T10:10:30;55.27;;;19.07;;
18917;SDS011;9591;52.742;13.650;2023-02-11T10:13:30;53.67;;;19.17;;
18917;SDS011;9591;52.742;13.650;2023-02-11T10:16:34;44.53;;;17.73;;
18917;SDS011;9591;52.742;13.650;2023-02-11T10:19:38;50.33;;;17.90;;
18917;SDS011;9591;52.742;13.650;2023-02-11T10:22:36;47.63;;;17.40;;
18917;SDS011;9591;52.742;13.650;2023-02-11T10:25:29;51.00;;;19.00;;
18917;SDS011;9591;52.742;13.650;2023-02-11T10:28:23;46.00;;;17.93;;
18917;SDS011;9591;52.742;13.650;2023-02-11T10:31:15;42.63;;;14.93;;
18917;SDS011;9591;52.742;13.650;2023-02-11T10:34:07;46.50;;;17.33;;
18917;SDS011;9591;52.742;13.650;2023-02-11T10:36:56;45.50;;;17.30;;
18917;SDS011;9591;52.742;13.650;2023-02-11T10:39:43;41.57;;;16.33;;
18917;SDS011;9591;52.742;13.650;2023-02-11T10:42:31;42.20;;;16.87;;
18917;SDS011;9591;52.742;13.650;2023-02-11T10:45:20;48.67;;;17.07;;
18917;SDS011;9591;52.742;13.650;2023-02-11T10:51:23;36.30;;;16.30;;
18917;SDS011;9591;52.742;13.650;2023-02-11T10:54:14;50.23;;;17.23;;
18917;SDS011;9591;52.742;13.650;2023-02-11T10:57:05;45.70;;;16.63;;
18917;SDS011;9591;52.742;13.650;2023-02-11T10:59:56;42.73;;;16.93;;
18917;SDS011;9591;52.742;13.650;2023-02-11T11:02:44;38.63;;;16.57;;
18917;SDS011;9591;52.742;13.650;2023-02-11T11:05:44;40.23;;;16.47;;
18917;SDS011;9591;52.742;13.650;2023-02-11T11:08:36;40.40;;;15.10;;
18917;SDS011;9591;52.742;13.650;2023-02-11T11:11:26;45.97;;;17.20;;
18917;SDS011;9591;52.742;13.650;2023-02-11T11:14:17;44.03;;;15.43;;
18917;SDS011;9591;52.742;13.650;2023-02-11T11:17:13;48.23;;;16.73;;
18917;SDS011;9591;52.742;13.650;2023-02-11T11:20:14;40.07;;;14.83;;
18917;SDS011;9591;52.742;13.650;2023-02-11T11:23:09;44.53;;;16.00;;
18917;SDS011;9591;52.742;13.650;2023-02-11T11:26:02;33.07;;;14.17;;
18917;SDS011;9591;52.742;13.650;2023-02-11T11:28:55;39.20;;;14.80;;
18917;SDS011;9591;52.742;13.650;2023-02-11T11:31:45;34.07;;;12.97;;
18917;SDS011;9591;52.742;13.650;2023-02-11T11:34:37;36.73;;;14.13;;
18917;SDS011;9591;52.742;13.650;2023-02-11T11:37:27;38.70;;;15.90;;
18917;SDS011;9591;52.742;13.650;2023-02-11T11:40:20;36.37;;;15.13;;
18917;SDS011;9591;52.742;13.650;2023-02-11T11:43:15;38.57;;;15.40;;
18917;SDS011;9591;52.742;13.650;2023-02-11T11:46:07;39.57;;;14.17;;
18917;SDS011;9591;52.742;13.650;2023-02-11T11:48:58;34.80;;;13.87;;
18917;SDS011;9591;52.742;13.650;2023-02-11T11:51:55;43.50;;;13.90;;
18917;SDS011;9591;52.742;13.650;2023-02-11T11:54:54;30.87;;;13.13;;
18917;SDS011;9591;52.742;13.650;2023-02-11T11:57:49;37.73;;;12.67;;
18917;SDS011;9591;52.742;13.650;2023-02-11T12:00:38;27.57;;;12.10;;
18917;SDS011;9591;52.742;13.650;2023-02-11T12:03:40;24.47;;;11.87;;
18917;SDS011;9591;52.742;13.650;2023-02-11T12:07:05;31.47;;;13.20;;
18917;SDS011;9591;52.742;13.650;2023-02-11T12:13:14;29.90;;;12.20;;
18917;SDS011;9591;52.742;13.650;2023-02-11T12:16:10;37.03;;;13.40;;
18917;SDS011;9591;52.742;13.650;2023-02-11T12:22:39;29.80;;;11.70;;
18917;SDS011;9591;52.742;13.650;2023-02-11T12:25:37;35.87;;;13.03;;
18917;SDS011;9591;52.742;13.650;2023-02-11T12:28:33;30.83;;;12.50;;
18917;SDS011;9591;52.742;13.650;2023-02-11T12:31:32;27.70;;;11.47;;
18917;SDS011;9591;52.742;13.650;2023-02-11T12:34:35;26.80;;;11.60;;
18917;SDS011;9591;52.742;13.650;2023-02-11T12:37:43;25.40;;;10.90;;
18917;SDS011;9591;52.742;13.650;2023-02-11T12:40:44;23.20;;;11.10;;
18917;SDS011;9591;52.742;13.650;2023-02-11T12:43:32;26.70;;;11.90;;
18917;SDS011;9591;52.742;13.650;2023-02-11T12:46:31;28.47;;;12.03;;
18917;SDS011;9591;52.742;13.650;2023-02-11T12:52:48;31.53;;;10.60;;
18917;SDS011;9591;52.742;13.650;2023-02-11T12:55:48;18.47;;;9.30;;
18917;SDS011;9591;52.742;13.650;2023-02-11T12:58:41;27.37;;;10.97;;
18917;SDS011;9591;52.742;13.650;2023-02-11T13:01:30;20.90;;;9.37;;
18917;SDS011;9591;52.742;13.650;2023-02-11T13:04:23;20.17;;;10.10;;
18917;SDS011;9591;52.742;13.650;2023-02-11T13:07:15;24.47;;;9.67;;
18917;SDS011;9591;52.742;13.650;2023-02-11T13:10:14;23.90;;;9.97;;
18917;SDS011;9591;52.742;13.650;2023-02-11T13:13:10;22.43;;;9.80;;
18917;SDS011;9591;52.742;13.650;2023-02-11T13:16:02;21.33;;;9.73;;
18917;SDS011;9591;52.742;13.650;2023-02-11T13:18:54;25.80;;;10.37;;
18917;SDS011;9591;52.742;13.650;2023-02-11T13:24:55;23.93;;;9.97;;
18917;SDS011;9591;52.742;13.650;2023-02-11T13:27:52;21.70;;;8.73;;
18917;SDS011;9591;52.742;13.650;2023-02-11T13:30:42;20.80;;;9.20;;
18917;SDS011;9591;52.742;13.650;2023-02-11T13:33:36;20.97;;;9.30;;
18917;SDS011;9591;52.742;13.650;2023-02-11T13:36:27;21.27;;;9.33;;
18917;SDS011;9591;52.742;13.650;2023-02-11T13:39:18;23.10;;;9.03;;
18917;SDS011;9591;52.742;13.650;2023-02-11T13:42:10;21.77;;;9.33;;
18917;SDS011;9591;52.742;13.650;2023-02-11T13:45:03;21.50;;;8.73;;
18917;SDS011;9591;52.742;13.650;2023-02-11T13:48:03;21.20;;;9.03;;
18917;SDS011;9591;52.742;13.650;2023-02-11T13:50:53;20.50;;;8.77;;
18917;SDS011;9591;52.742;13.650;2023-02-11T13:53:43;20.03;;;9.37;;
18917;SDS011;9591;52.742;13.650;2023-02-11T13:56:32;16.97;;;8.43;;
18917;SDS011;9591;52.742;13.650;2023-02-11T14:02:32;14.40;;;8.23;;
18917;SDS011;9591;52.742;13.650;2023-02-11T14:05:38;18.50;;;8.43;;
18917;SDS011;9591;52.742;13.650;2023-02-11T14:09:35;17.57;;;7.43;;
18917;SDS011;9591;52.742;13.650;2023-02-11T14:12:29;16.47;;;8.13;;
18917;SDS011;9591;52.742;13.650;2023-02-11T14:15:24;22.10;;;8.67;;
18917;SDS011;9591;52.742;13.650;2023-02-11T14:21:40;17.27;;;8.90;;
18917;SDS011;9591;52.742;13.650;2023-02-11T14:24:43;19.70;;;7.87;;
18917;SDS011;9591;52.742;13.650;2023-02-11T14:27:39;15.20;;;7.80;;
18917;SDS011;9591;52.742;13.650;2023-02-11T14:30:31;14.97;;;7.63;;
18917;SDS011;9591;52.742;13.650;2023-02-11T14:36:53;18.83;;;8.20;;
18917;SDS011;9591;52.742;13.650;2023-02-11T14:39:54;14.40;;;7.57;;
18917;SDS011;9591;52.742;13.650;2023-02-11T14:42:46;19.47;;;8.73;;
18917;SDS011;9591;52.742;13.650;2023-02-11T14:45:33;16.57;;;7.90;;
18917;SDS011;9591;52.742;13.650;2023-02-11T14:48:24;20.77;;;7.90;;
18917;SDS011;9591;52.742;13.650;2023-02-11T14:51:17;16.13;;;7.67;;
18917;SDS011;9591;52.742;13.650;2023-02-11T14:54:10;13.90;;;7.70;;
18917;SDS011;9591;52.742;13.650;2023-02-11T14:57:04;16.57;;;7.03;;
18917;SDS011;9591;52.742;13.650;2023-02-11T14:59:53;16.27;;;7.63;;
18917;SDS011;9591;52.742;13.650;2023-02-11T15:02:43;16.63;;;7.30;;
18917;SDS011;9591;52.742;13.650;2023-02-11T15:05:30;12.67;;;6.47;;
18917;SDS011;9591;52.742;13.650;2023-02-11T15:08:17;16.10;;;6.97;;
18917;SDS011;9591;52.742;13.650;2023-02-11T15:11:08;15.17;;;6.73;;
18917;SDS011;9591;52.742;13.650;2023-02-11T15:13:58;12.33;;;6.40;;
18917;SDS011;9591;52.742;13.650;2023-02-11T15:16:53;15.37;;;7.03;;
18917;SDS011;9591;52.742;13.650;2023-02-11T15:19:43;11.80;;;6.37;;
18917;SDS011;9591;52.742;13.650;2023-02-11T15:22:32;13.30;;;7.07;;
18917;SDS011;9591;52.742;13.650;2023-02-11T15:25:22;10.67;;;5.13;;
18917;SDS011;9591;52.742;13.650;2023-02-11T15:28:14;17.10;;;6.63;;
18917;SDS011;9591;52.742;13.650;2023-02-11T15:31:13;15.60;;;5.93;;
18917;SDS011;9591;52.742;13.650;2023-02-11T15:34:06;10.27;;;5.47;;
18917;SDS011;9591;52.742;13.650;2023-02-11T15:36:55;9.50;;;5.30;;
18917;SDS011;9591;52.742;13.650;2023-02-11T15:39:44;10.10;;;5.37;;
18917;SDS011;9591;52.742;13.650;2023-02-11T15:42:30;10.37;;;6.07;;
18917;SDS011;9591;52.742;13.650;2023-02-11T15:45:37;9.40;;;4.93;;
18917;SDS011;9591;52.742;13.650;2023-02-11T15:48:31;7.20;;;4.30;;
18917;SDS011;9591;52.742;13.650;2023-02-11T15:51:23;6.83;;;4.40;;
18917;SDS011;9591;52.742;13.650;2023-02-11T15:54:16;8.90;;;4.90;;
18917;SDS011;9591;52.742;13.650;2023-02-11T15:57:06;9.00;;;5.13;;
18917;SDS011;9591;52.742;13.650;2023-02-11T15:59:55;7.60;;;4.70;;
18917;SDS011;9591;52.742;13.650;2023-02-11T16:02:57;8.50;;;4.83;;
18917;SDS011;9591;52.742;13.650;2023-02-11T16:05:45;8.57;;;5.17;;
18917;SDS011;9591;52.742;13.650;2023-02-11T16:08:32;7.60;;;4.20;;
18917;SDS011;9591;52.742;13.650;2023-02-11T16:11:22;8.83;;;4.70;;
18917;SDS011;9591;52.742;13.650;2023-02-11T16:14:20;6.43;;;4.47;;
18917;SDS011;9591;52.742;13.650;2023-02-11T16:17:10;6.70;;;4.43;;
18917;SDS011;9591;52.742;13.650;2023-02-11T16:23:06;6.67;;;4.53;;
18917;SDS011;9591;52.742;13.650;2023-02-11T16:25:56;6.63;;;4.07;;
18917;SDS011;9591;52.742;13.650;2023-02-11T16:28:46;6.40;;;4.20;;
18917;SDS011;9591;52.742;13.650;2023-02-11T16:31:34;10.37;;;4.80;;
18917;SDS011;9591;52.742;13.650;2023-02-11T16:34:24;8.77;;;4.63;;
18917;SDS011;9591;52.742;13.650;2023-02-11T16:37:13;10.33;;;4.83;;
18917;SDS011;9591;52.742;13.650;2023-02-11T16:40:00;7.33;;;4.03;;
18917;SDS011;9591;52.742;13.650;2023-02-11T16:42:47;7.70;;;4.57;;
18917;SDS011;9591;52.742;13.650;2023-02-11T16:45:35;9.70;;;4.50;;
18917;SDS011;9591;52.742;13.650;2023-02-11T16:48:22;9.03;;;4.70;;
18917;SDS011;9591;52.742;13.650;2023-02-11T16:51:10;8.13;;;4.83;;
18917;SDS011;9591;52.742;13.650;2023-02-11T16:53:58;6.97;;;4.00;;
18917;SDS011;9591;52.742;13.650;2023-02-11T16:56:45;6.13;;;4.00;;
18917;SDS011;9591;52.742;13.650;2023-02-11T16:59:32;7.33;;;4.30;;
18917;SDS011;9591;52.742;13.650;2023-02-11T17:02:19;5.93;;;3.53;;
18917;SDS011;9591;52.742;13.650;2023-02-11T17:05:15;7.40;;;3.80;;
18917;SDS011;9591;52.742;13.650;2023-02-11T17:08:03;5.00;;;3.93;;
18917;SDS011;9591;52.742;13.650;2023-02-11T17:10:52;7.97;;;3.97;;
18917;SDS011;9591;52.742;13.650;2023-02-11T17:13:38;4.57;;;3.60;;
18917;SDS011;9591;52.742;13.650;2023-02-11T17:16:26;5.77;;;3.77;;
18917;SDS011;9591;52.742;13.650;2023-02-11T17:19:15;6.90;;;4.03;;